ENRS/RET METAR and TAF weather

Enter ICAO airport designator
Station Type Date Time Source
ENRS METAR 2018/07/16 16:20 UTC NOAA

ENRS 161620Z 08010KT CAVOK 15/13 Q1015


Station Type Date Time Source
ENRS Decoded METAR 2018/07/16 16:20 UTC NOAA

Rost Flyplass, Norway (ENRS) 67-31N 012-06E
Jul 16, 2018 - 12:20 PM EDT / 2018.07.16 1620 UTC
Wind: from the E (080 degrees) at 12 MPH (10 KT):0
Visibility: greater than 7 mile(s):0
Temperature: 59 F (15 C)
Dew Point: 55 F (13 C)
Relative Humidity: 87%
Pressure (altimeter): 29.97 in. Hg (1015 hPa)
ob: ENRS 161620Z 08010KT CAVOK 15/13 Q1015
cycle: 16

Station Type Date Time Source
ENRS TAF UTC NOAA

Error!


Example: see airport list